עמוד ראשי
תמונות לווין תחזית 10-יוםאקליםתחזית ים סופות טרופיות ברקים שדות תעופהשאלות נפוצות עלון אודות
מזג אוויר : אירופה אפריקה אמריקה הצפונית אמריקה הדרומית אסיה אוסטרליה-אוקיאניה אחרים
שפות איש קשר

סלוניקי, יוון

נמל התעופה הבינלאומי סלוניקי מקדוניה

קו רוחב: 40-31N, קו אורך: 022-58E, גובה: 8מטר


METAR: LGTS 041220Z 15014KT 9999 FEW030 SCT100 14/M01 Q1026 NOSIG
TAF: LGTS 041100Z 0412/0512 16015KT 9999 FEW030 BECMG 0419/0421 FEW010 SCT030 TEMPO 0504/0512 6000 RA FEW008 BKN025

זמן: 14:41 (12:41 UTC)

תצפית מזג אוויר נוכחית

הדו"ח נערך לפני 21דקות, בשעה 12:20 UTC
רוח 14קשר מכיוון דרום/דרום-מזרח
טמפרטורת 14 צלסיוס
לחות 36%
לחץ 1026 hPa
ראות 10 קילומטר או יותר
מעט עננים בגובה 3000רגל
עננים פזורים בגובה 10000רגל

שנה יחידות

תחזית

הדו"ח נערך לפני 1 שעות ו 41דקות, בשעה 11:00 UTC
תחזית בתוקף מ 04 ב 12 UTC עד 05 ב 12 UTC
רוח 15קשר מכיוון דרום/דרום-מזרח
ראות 10 קילומטר או יותר
מעט עננים בגובה 3000רגל
יעשה מ
04 ב 19 UTC עד 04 ב 21 UTC
מעט עננים בגובה 1000רגל
עננים פזורים בגובה 3000רגל
זמנית מ -
05 ב 04 UTC עד 05 ב 12 UTC
ראות: 6000מטר
מעט עננים בגובה 800רגל
עננים בינוניים בגובה 2500רגל
גשם
המידע באתר זה מותנה של תניית פטור
מזג אוויר : אירופה אפריקה אמריקה הצפונית אמריקה הדרומית אסיה אוסטרליה-אוקיאניה אחרים
תמונות לווין תחזית 10-יוםאקליםתחזית ים סופות טרופיות ברקים שדות תעופהשאלות נפוצות שפות איש קשר עלון אודות